createdAt,value
2022-10-04T00:02:00.211Z,9.44
2022-10-04T00:04:35.941Z,9.35
2022-10-04T00:07:15.125Z,9.50
2022-10-04T00:09:48.589Z,9.47
2022-10-04T00:12:28.261Z,9.36
2022-10-04T00:15:06.280Z,9.41
2022-10-04T00:17:37.001Z,9.40
2022-10-04T00:20:23.804Z,9.45
2022-10-04T00:23:23.447Z,9.32
2022-10-04T00:26:11.207Z,9.27
2022-10-04T00:28:38.186Z,9.39
2022-10-04T00:31:10.878Z,9.39
2022-10-04T00:33:45.192Z,9.35
2022-10-04T00:36:25.853Z,9.38
2022-10-04T00:39:05.742Z,9.39
2022-10-04T00:41:48.458Z,9.33
2022-10-04T00:44:15.643Z,9.40
2022-10-04T00:46:45.562Z,9.37
2022-10-04T00:49:13.840Z,9.36
2022-10-04T00:51:50.934Z,9.40
2022-10-04T00:54:36.475Z,9.40
2022-10-04T00:57:17.835Z,9.29
2022-10-04T00:59:48.750Z,9.39
2022-10-04T01:02:24.417Z,9.35
2022-10-04T01:04:53.673Z,9.31
2022-10-04T01:07:28.914Z,8.99
2022-10-04T01:10:00.496Z,9.23
2022-10-04T01:12:44.601Z,9.30
2022-10-04T01:15:36.703Z,9.09
2022-10-04T01:18:14.727Z,9.18
2022-10-04T01:20:54.531Z,9.22
2022-10-04T01:23:44.357Z,9.19
2022-10-04T01:26:45.122Z,9.17
2022-10-04T01:29:27.237Z,9.12
2022-10-04T01:31:57.471Z,9.05
2022-10-04T01:34:30.272Z,8.88
2022-10-04T01:37:00.346Z,8.76
2022-10-04T01:39:28.838Z,8.71
2022-10-04T01:42:05.280Z,8.77
2022-10-04T01:45:05.974Z,8.65
2022-10-04T01:47:39.031Z,8.49
2022-10-04T01:50:15.964Z,8.47
2022-10-04T01:52:51.002Z,8.43
2022-10-04T01:55:24.889Z,8.45
2022-10-04T01:58:23.685Z,8.40
2022-10-04T02:00:58.012Z,8.35
2022-10-04T02:03:34.292Z,8.33
2022-10-04T02:06:06.342Z,8.14
2022-10-04T02:08:38.381Z,8.24
2022-10-04T02:11:07.336Z,8.25
2022-10-04T02:13:39.945Z,8.23
2022-10-04T02:16:13.184Z,8.28
2022-10-04T02:18:43.762Z,8.17
2022-10-04T02:21:12.757Z,8.17
2022-10-04T02:23:42.165Z,8.22
2022-10-04T02:26:11.354Z,7.96
2022-10-04T02:28:40.785Z,8.04
2022-10-04T02:31:28.392Z,8.09
2022-10-04T02:33:59.674Z,8.14
2022-10-04T02:36:30.212Z,8.02
2022-10-04T02:39:16.105Z,8.04
2022-10-04T02:41:48.898Z,8.12
2022-10-04T02:44:21.802Z,8.10
2022-10-04T02:47:13.111Z,8.06
2022-10-04T02:49:47.945Z,8.08
2022-10-04T02:52:32.024Z,8.10
2022-10-04T02:55:09.704Z,8.12
2022-10-04T02:57:42.323Z,8.02
2022-10-04T03:00:22.740Z,8.00
2022-10-04T03:03:11.183Z,8.13
2022-10-04T03:05:39.957Z,8.10
2022-10-04T03:08:07.983Z,8.09
2022-10-04T03:10:36.415Z,8.09
2022-10-04T03:13:04.395Z,8.05
2022-10-04T03:15:32.766Z,8.08
2022-10-04T03:18:01.439Z,7.98
2022-10-04T03:20:29.066Z,8.03
2022-10-04T03:22:57.314Z,8.03
2022-10-04T03:25:30.118Z,8.06
2022-10-04T03:28:02.898Z,8.05
2022-10-04T03:30:32.746Z,8.08
2022-10-04T03:33:00.346Z,8.08
2022-10-04T03:35:33.284Z,8.08
2022-10-04T03:38:03.619Z,8.07
2022-10-04T03:40:34.235Z,7.93
2022-10-04T03:43:04.461Z,8.05
2022-10-04T03:45:35.373Z,8.09
2022-10-04T03:48:10.125Z,8.10
2022-10-04T03:50:52.466Z,7.89
2022-10-04T03:53:30.780Z,8.11
2022-10-04T03:56:04.046Z,8.08
2022-10-04T03:58:31.828Z,8.19
2022-10-04T04:01:24.280Z,8.25
2022-10-04T04:04:01.263Z,8.30
2022-10-04T04:06:50.697Z,8.36
2022-10-04T04:09:26.957Z,8.39
2022-10-04T04:11:57.868Z,8.38
2022-10-04T04:14:27.249Z,8.33
2022-10-04T04:17:15.572Z,8.42
2022-10-04T04:19:43.345Z,8.36
2022-10-04T04:22:16.893Z,8.35
2022-10-04T04:24:46.688Z,8.36
2022-10-04T04:27:17.996Z,8.51
2022-10-04T04:29:52.972Z,8.43
2022-10-04T04:32:34.180Z,8.28
2022-10-04T04:35:13.113Z,8.40
2022-10-04T04:37:40.350Z,8.33
2022-10-04T04:40:22.827Z,8.29
2022-10-04T04:42:51.895Z,8.19
2022-10-04T04:45:24.156Z,8.18
2022-10-04T04:47:54.488Z,8.31
2022-10-04T04:50:24.591Z,8.27
2022-10-04T04:53:00.916Z,8.41
2022-10-04T04:55:50.017Z,8.57
2022-10-04T04:58:35.548Z,8.84
2022-10-04T05:01:09.226Z,9.11
2022-10-04T05:03:36.381Z,9.23
2022-10-04T05:06:05.100Z,9.24
2022-10-04T05:08:40.419Z,9.38
2022-10-04T05:11:08.522Z,9.53
2022-10-04T05:13:57.139Z,9.66
2022-10-04T05:16:36.333Z,9.78
2022-10-04T05:19:28.804Z,9.78
2022-10-04T05:21:58.258Z,9.65
2022-10-04T05:24:31.088Z,9.71
2022-10-04T05:27:02.787Z,9.83
2022-10-04T05:29:36.260Z,9.78
2022-10-04T05:32:08.869Z,9.72
2022-10-04T05:34:42.551Z,9.70
2022-10-04T05:37:20.724Z,9.73
2022-10-04T05:40:03.988Z,9.83
2022-10-04T05:42:45.336Z,9.95
2022-10-04T05:45:20.300Z,10.35
2022-10-04T05:47:53.773Z,10.46
2022-10-04T05:50:33.521Z,10.64
2022-10-04T05:53:36.067Z,10.76
2022-10-04T05:56:26.298Z,10.60
2022-10-04T05:59:03.168Z,10.38
2022-10-04T06:01:55.735Z,10.59
2022-10-04T06:04:22.955Z,10.67
2022-10-04T06:07:16.579Z,10.57
2022-10-04T06:09:53.333Z,10.56
2022-10-04T06:12:47.151Z,10.38
2022-10-04T06:15:44.232Z,10.40
2022-10-04T06:19:06.181Z,10.51
2022-10-04T06:22:22.783Z,10.48
2022-10-04T06:25:05.033Z,10.43
2022-10-04T06:27:49.011Z,10.36
2022-10-04T06:30:19.010Z,10.37
2022-10-04T06:33:07.274Z,10.53
2022-10-04T06:35:58.733Z,10.61
2022-10-04T06:38:47.886Z,10.68
2022-10-04T06:41:28.452Z,10.76
2022-10-04T06:44:22.496Z,10.83
2022-10-04T06:47:16.592Z,10.79
2022-10-04T06:50:01.511Z,10.84
2022-10-04T06:52:43.790Z,11.28
2022-10-04T06:55:38.020Z,11.77
2022-10-04T06:58:19.848Z,11.62
2022-10-04T07:01:00.089Z,11.80
2022-10-04T07:03:56.306Z,11.78
2022-10-04T07:06:47.731Z,11.84
2022-10-04T07:09:25.172Z,11.65
2022-10-04T07:12:08.664Z,11.84
2022-10-04T07:14:44.310Z,11.71
2022-10-04T07:17:20.450Z,11.75
2022-10-04T07:19:53.165Z,11.90
2022-10-04T07:22:29.500Z,11.97
2022-10-04T07:25:20.082Z,12.36
2022-10-04T07:28:19.183Z,12.69
2022-10-04T07:30:52.923Z,12.72
2022-10-04T07:33:25.464Z,12.70
2022-10-04T07:36:01.082Z,13.01
2022-10-04T07:38:31.788Z,13.58
2022-10-04T07:41:07.659Z,13.73
2022-10-04T07:43:47.294Z,13.65
2022-10-04T07:46:37.777Z,13.92
2022-10-04T07:49:04.825Z,13.75
2022-10-04T07:51:45.203Z,13.80
2022-10-04T07:54:29.098Z,14.23
2022-10-04T07:57:04.502Z,14.65
2022-10-04T08:00:23.859Z,14.44
2022-10-04T08:02:50.894Z,14.44
2022-10-04T08:05:23.491Z,14.32
2022-10-04T08:08:18.346Z,14.60
2022-10-04T08:11:00.642Z,14.60
2022-10-04T08:14:00.267Z,14.60
2022-10-04T08:17:17.066Z,14.59
2022-10-04T08:19:44.127Z,14.14
2022-10-04T08:22:35.892Z,14.06
2022-10-04T08:25:22.359Z,14.14
2022-10-04T08:28:20.755Z,13.80
2022-10-04T08:31:21.594Z,13.26
2022-10-04T08:33:48.604Z,13.09
2022-10-04T08:36:57.319Z,12.82
2022-10-04T08:39:44.790Z,13.05
2022-10-04T08:42:54.057Z,13.07
2022-10-04T08:45:21.472Z,13.50
2022-10-04T08:48:07.152Z,13.44
2022-10-04T08:50:40.390Z,13.31
2022-10-04T08:53:14.659Z,13.15
2022-10-04T08:56:17.696Z,13.08
2022-10-04T08:59:36.465Z,13.14
2022-10-04T09:02:26.656Z,13.29
2022-10-04T09:05:09.444Z,13.31
2022-10-04T09:08:01.571Z,13.39
2022-10-04T09:10:51.316Z,13.34
2022-10-04T09:13:50.358Z,13.81
2022-10-04T09:16:23.467Z,14.46
2022-10-04T09:19:13.115Z,14.70
2022-10-04T09:21:59.489Z,15.34
2022-10-04T09:24:44.941Z,15.73
2022-10-04T09:27:54.724Z,15.73
2022-10-04T09:30:25.307Z,15.45
2022-10-04T09:33:11.070Z,15.31
2022-10-04T09:36:16.669Z,14.90
2022-10-04T09:39:29.886Z,14.34
2022-10-04T09:42:04.170Z,14.15
2022-10-04T09:44:57.057Z,13.55
2022-10-04T09:47:32.514Z,13.85
2022-10-04T09:50:24.371Z,13.81
2022-10-04T09:53:18.296Z,13.74
2022-10-04T09:56:06.728Z,13.75
2022-10-04T09:59:02.611Z,13.60
2022-10-04T10:01:41.032Z,13.60
2022-10-04T10:04:42.505Z,13.64
2022-10-04T10:07:21.360Z,13.81
2022-10-04T10:10:31.961Z,13.98
2022-10-04T10:13:36.930Z,14.23
2022-10-04T10:16:31.371Z,14.16
2022-10-04T10:19:26.151Z,13.98
2022-10-04T10:21:58.210Z,13.79
2022-10-04T10:24:48.230Z,13.79
2022-10-04T10:27:46.942Z,13.36
2022-10-04T10:30:22.930Z,13.50
2022-10-04T10:33:04.500Z,13.23
2022-10-04T10:35:50.052Z,13.27
2022-10-04T10:38:45.155Z,12.89
2022-10-04T10:41:39.316Z,11.79
2022-10-04T10:44:31.664Z,10.65
2022-10-04T10:47:26.423Z,9.92
2022-10-04T10:50:21.611Z,9.19
2022-10-04T10:53:12.836Z,9.07
2022-10-04T10:55:59.181Z,8.83
2022-10-04T10:58:49.629Z,8.70
2022-10-04T11:01:40.455Z,8.46
2022-10-04T11:04:35.843Z,8.23
2022-10-04T11:07:09.408Z,8.09
2022-10-04T11:10:04.423Z,8.02
2022-10-04T11:12:31.673Z,7.94
2022-10-04T11:15:38.628Z,7.90
2022-10-04T11:18:17.546Z,7.81
2022-10-04T11:21:28.318Z,7.79
2022-10-04T11:24:26.438Z,7.80
2022-10-04T11:27:00.416Z,7.74
2022-10-04T11:29:31.120Z,7.68
2022-10-04T11:32:01.328Z,7.63
2022-10-04T11:34:31.599Z,7.64
2022-10-04T11:37:02.844Z,7.58
2022-10-04T11:39:49.128Z,7.60
2022-10-04T11:42:53.916Z,7.66
2022-10-04T11:45:34.205Z,7.64
2022-10-04T11:48:20.313Z,7.73
2022-10-04T11:51:35.253Z,7.81
2022-10-04T11:54:51.815Z,7.89
2022-10-04T11:57:59.740Z,7.84
2022-10-04T12:00:49.887Z,8.10
2022-10-04T12:03:44.583Z,8.27
2022-10-04T12:06:23.667Z,8.59
2022-10-04T12:09:10.863Z,8.64
2022-10-04T12:12:38.850Z,8.60
2022-10-04T12:15:24.575Z,8.64
2022-10-04T12:18:13.079Z,8.68
2022-10-04T12:21:33.910Z,8.67
2022-10-04T12:24:07.104Z,8.67
2022-10-04T12:26:51.757Z,8.69
2022-10-04T12:30:04.514Z,8.51
2022-10-04T12:32:44.025Z,8.70
2022-10-04T12:35:14.542Z,8.65
2022-10-04T12:38:16.773Z,8.67
2022-10-04T12:41:13.162Z,8.79
2022-10-04T12:44:20.908Z,8.75
2022-10-04T12:47:20.566Z,9.03
2022-10-04T12:50:01.017Z,9.18
2022-10-04T12:52:50.178Z,9.18
2022-10-04T12:55:20.332Z,9.13
2022-10-04T12:57:54.199Z,9.06
2022-10-04T13:00:26.156Z,9.10
2022-10-04T13:03:26.767Z,9.11
2022-10-04T13:06:25.345Z,9.12
2022-10-04T13:09:15.520Z,9.14
2022-10-04T13:12:13.289Z,9.14
2022-10-04T13:14:41.875Z,9.14
2022-10-04T13:17:36.066Z,8.99
2022-10-04T13:20:34.339Z,9.21
2022-10-04T13:23:21.772Z,9.12
2022-10-04T13:26:19.129Z,9.17
2022-10-04T13:29:07.231Z,9.09
2022-10-04T13:31:50.770Z,9.07
2022-10-04T13:34:52.157Z,9.03
2022-10-04T13:37:31.421Z,9.03
2022-10-04T13:40:22.908Z,9.00
2022-10-04T13:43:15.013Z,8.98
2022-10-04T13:45:53.985Z,8.99
2022-10-04T13:48:32.995Z,8.96
2022-10-04T13:51:23.529Z,8.96
2022-10-04T13:54:12.108Z,8.93
2022-10-04T13:56:42.484Z,8.92
2022-10-04T13:59:36.156Z,8.89
2022-10-04T14:02:03.958Z,8.90
2022-10-04T14:04:43.711Z,8.87
2022-10-04T14:07:38.021Z,8.87
2022-10-04T14:10:22.710Z,8.85
2022-10-04T14:12:50.478Z,8.82
2022-10-04T14:15:42.325Z,8.81
2022-10-04T14:18:10.222Z,8.78
2022-10-04T14:20:43.657Z,8.79
2022-10-04T14:24:09.410Z,8.80
2022-10-04T14:27:12.822Z,8.77
2022-10-04T14:29:40.950Z,8.78
2022-10-04T14:32:20.545Z,8.73
2022-10-04T14:35:22.664Z,8.74
2022-10-04T14:38:06.756Z,8.58
2022-10-04T14:40:56.391Z,8.71
2022-10-04T14:43:58.967Z,8.70
2022-10-04T14:47:03.040Z,8.71
2022-10-04T14:49:31.747Z,8.72
2022-10-04T14:52:20.752Z,8.66
2022-10-04T14:55:04.164Z,8.67
2022-10-04T14:57:52.138Z,8.72
2022-10-04T15:00:22.670Z,8.57
2022-10-04T15:03:29.008Z,8.69
2022-10-04T15:06:26.083Z,8.70
2022-10-04T15:09:18.535Z,8.68
2022-10-04T15:12:29.380Z,8.68
2022-10-04T15:14:59.185Z,8.70
2022-10-04T15:17:37.229Z,8.69
2022-10-04T15:20:28.301Z,8.69
2022-10-04T15:23:09.717Z,8.70
2022-10-04T15:25:43.446Z,8.69
2022-10-04T15:28:30.346Z,8.71
2022-10-04T15:31:22.633Z,8.68
2022-10-04T15:34:29.191Z,8.67
2022-10-04T15:37:40.189Z,8.49
2022-10-04T15:40:29.909Z,8.51
2022-10-04T15:43:19.097Z,8.59
2022-10-04T15:46:18.529Z,8.52
2022-10-04T15:49:07.027Z,8.55
2022-10-04T15:51:50.324Z,8.42
2022-10-04T15:55:02.248Z,8.55
2022-10-04T15:57:42.316Z,8.55
2022-10-04T16:00:20.802Z,8.53
2022-10-04T16:03:13.000Z,8.54
2022-10-04T16:06:06.341Z,8.51
2022-10-04T16:09:06.626Z,8.49
2022-10-04T16:11:54.167Z,8.47
2022-10-04T16:14:40.814Z,8.44
2022-10-04T16:17:47.802Z,8.45
2022-10-04T16:20:35.030Z,8.46
2022-10-04T16:23:29.711Z,8.47
2022-10-04T16:26:03.560Z,8.47
2022-10-04T16:28:40.378Z,8.46
2022-10-04T16:31:25.362Z,8.47
2022-10-04T16:34:14.916Z,8.46
2022-10-04T16:37:12.619Z,8.38
2022-10-04T16:40:22.804Z,8.31
2022-10-04T16:42:53.720Z,8.43
2022-10-04T16:45:41.115Z,8.44
2022-10-04T16:48:47.658Z,8.35
2022-10-04T16:51:18.749Z,8.47
2022-10-04T16:54:12.482Z,8.31
2022-10-04T16:56:54.717Z,8.47
2022-10-04T16:59:37.584Z,8.39
2022-10-04T17:02:14.957Z,8.46
2022-10-04T17:04:56.279Z,8.48
2022-10-04T17:07:42.845Z,8.46
2022-10-04T17:10:37.619Z,8.49
2022-10-04T17:13:56.849Z,8.48
2022-10-04T17:16:40.061Z,8.49
2022-10-04T17:19:33.658Z,8.50
2022-10-04T17:22:53.381Z,8.43
2022-10-04T17:25:39.074Z,8.46
2022-10-04T17:28:35.241Z,8.42
2022-10-04T17:31:12.005Z,8.38
2022-10-04T17:34:30.912Z,8.36
2022-10-04T17:37:24.179Z,8.40
2022-10-04T17:40:04.058Z,8.43
2022-10-04T17:43:17.486Z,8.41
2022-10-04T17:46:07.731Z,8.44
2022-10-04T17:49:07.080Z,8.22
2022-10-04T17:52:03.025Z,7.88
2022-10-04T17:55:00.977Z,7.69
2022-10-04T17:57:39.535Z,7.60
2022-10-04T18:00:11.088Z,7.52
2022-10-04T18:02:38.876Z,7.47
2022-10-04T18:05:19.952Z,7.41
2022-10-04T18:08:10.816Z,7.19
2022-10-04T18:10:52.843Z,7.32
2022-10-04T18:13:31.391Z,7.31
2022-10-04T18:16:28.756Z,7.37
2022-10-04T18:18:58.461Z,7.31
2022-10-04T18:21:34.541Z,7.36
2022-10-04T18:24:22.456Z,7.17
2022-10-04T18:27:01.793Z,7.40
2022-10-04T18:29:40.902Z,7.41
2022-10-04T18:32:33.739Z,7.40
2022-10-04T18:35:31.847Z,7.39
2022-10-04T18:38:05.800Z,7.39
2022-10-04T18:40:37.009Z,7.35
2022-10-04T18:43:27.000Z,7.31
2022-10-04T18:46:15.362Z,7.26
2022-10-04T18:48:55.882Z,7.29
2022-10-04T18:51:40.680Z,7.20
2022-10-04T18:54:32.637Z,7.15
2022-10-04T18:57:19.844Z,7.26
2022-10-04T19:00:28.964Z,7.17
2022-10-04T19:03:15.375Z,7.26
2022-10-04T19:06:16.740Z,7.26
2022-10-04T19:09:05.100Z,7.28
2022-10-04T19:11:44.183Z,7.35
2022-10-04T19:15:04.417Z,7.38
2022-10-04T19:17:58.310Z,7.38
2022-10-04T19:20:49.152Z,7.37
2022-10-04T19:23:29.665Z,7.32
2022-10-04T19:29:08.216Z,7.09
2022-10-04T19:31:58.213Z,7.16
2022-10-04T19:34:45.186Z,7.19
2022-10-04T19:37:19.364Z,7.19
2022-10-04T19:40:05.162Z,7.22
2022-10-04T19:43:12.195Z,7.20
2022-10-04T19:46:05.757Z,7.20
2022-10-04T19:49:00.326Z,7.17
2022-10-04T19:51:39.243Z,7.15
2022-10-04T19:54:16.125Z,7.07
2022-10-04T19:56:50.056Z,6.87
2022-10-04T19:59:22.775Z,7.12
2022-10-04T20:01:55.085Z,6.91
2022-10-04T20:04:42.432Z,6.98
2022-10-04T20:07:22.370Z,7.08
2022-10-04T20:10:20.482Z,7.06
2022-10-04T20:13:11.660Z,7.04
2022-10-04T20:15:40.026Z,7.01
2022-10-04T20:18:33.020Z,6.99
2022-10-04T20:21:04.417Z,6.98
2022-10-04T20:23:44.607Z,6.95
2022-10-04T20:27:01.907Z,6.93
2022-10-04T20:29:39.141Z,6.89
2022-10-04T20:32:34.987Z,6.83
2022-10-04T20:35:06.986Z,6.87
2022-10-04T20:38:07.598Z,6.86
2022-10-04T20:40:41.586Z,6.84
2022-10-04T20:43:24.702Z,6.81
2022-10-04T20:45:58.301Z,6.78
2022-10-04T20:48:27.947Z,6.73
2022-10-04T20:50:56.535Z,6.69
2022-10-04T20:53:27.959Z,6.76
2022-10-04T20:56:22.048Z,6.76
2022-10-04T20:58:59.292Z,6.72
2022-10-04T21:01:40.021Z,6.69
2022-10-04T21:04:32.899Z,6.64
2022-10-04T21:07:06.741Z,6.70
2022-10-04T21:09:37.433Z,6.70
2022-10-04T21:12:06.623Z,6.50
2022-10-04T21:14:40.385Z,6.69
2022-10-04T21:17:29.829Z,6.72
2022-10-04T21:19:57.854Z,6.73
2022-10-04T21:22:29.410Z,6.73
2022-10-04T21:24:59.709Z,6.71
2022-10-04T21:27:28.529Z,6.77
2022-10-04T21:29:56.755Z,6.63
2022-10-04T21:32:26.290Z,6.78
2022-10-04T21:34:54.842Z,6.79
2022-10-04T21:37:23.063Z,6.64
2022-10-04T21:39:50.301Z,6.75
2022-10-04T21:42:18.104Z,6.80
2022-10-04T21:44:45.962Z,6.87
2022-10-04T21:47:13.396Z,6.74
2022-10-04T21:49:41.521Z,6.81
2022-10-04T21:52:09.282Z,6.81
2022-10-04T21:54:36.521Z,6.89
2022-10-04T21:57:03.768Z,6.85
2022-10-04T21:59:31.639Z,6.97
2022-10-04T22:01:59.284Z,6.98
2022-10-04T22:04:26.418Z,6.85
2022-10-04T22:06:53.483Z,6.98
2022-10-04T22:09:20.591Z,6.76
2022-10-04T22:11:47.676Z,6.88
2022-10-04T22:14:14.737Z,6.91
2022-10-04T22:16:41.916Z,6.75
2022-10-04T22:19:09.154Z,6.82
2022-10-04T22:21:37.451Z,6.85
2022-10-04T22:24:13.335Z,6.64
2022-10-04T22:26:41.550Z,6.82
2022-10-04T22:29:14.435Z,6.84
2022-10-04T22:31:44.126Z,6.69
2022-10-04T22:34:20.858Z,6.71
2022-10-04T22:36:50.442Z,6.74
2022-10-04T22:39:20.378Z,6.82
2022-10-04T22:42:00.982Z,6.68
2022-10-04T22:44:36.346Z,6.79
2022-10-04T22:47:06.860Z,6.77
2022-10-04T22:49:37.970Z,6.78
2022-10-04T22:52:21.175Z,6.21
2022-10-04T22:54:51.246Z,6.78
2022-10-04T22:57:19.990Z,6.75
2022-10-04T22:59:50.199Z,6.64
2022-10-04T23:02:29.563Z,6.73
2022-10-04T23:05:11.204Z,6.52
2022-10-04T23:07:39.241Z,6.61
2022-10-04T23:10:07.669Z,6.67
2022-10-04T23:12:35.341Z,6.58
2022-10-04T23:15:03.179Z,6.60
2022-10-04T23:17:36.482Z,6.48
2022-10-04T23:20:14.982Z,6.57
2022-10-04T23:22:47.151Z,6.58
2022-10-04T23:25:25.023Z,6.65
2022-10-04T23:27:52.198Z,6.67
2022-10-04T23:30:22.791Z,6.63
2022-10-04T23:32:53.408Z,6.58
2022-10-04T23:35:23.964Z,6.71
2022-10-04T23:37:52.951Z,6.66
2022-10-04T23:40:24.190Z,6.68
2022-10-04T23:42:57.001Z,6.62
2022-10-04T23:45:25.973Z,6.59
2022-10-04T23:47:58.779Z,6.66
2022-10-04T23:50:30.004Z,6.58
2022-10-04T23:53:02.883Z,6.67
2022-10-04T23:55:41.509Z,6.67
2022-10-04T23:58:13.920Z,6.62
